Portada
METAR-TAF:

METAR-TAF

Aeroports :

Alderney,

latitud: 49-43N, longitud: 002-12W, altitud: 71 m

Observació

L'informe es va fer fa 9 hores i 24 minuts, a les 17:20 UTC
Vent 6 kt del Oest
Temperatura 11°C
Humitat 94%
Pressió 1024 hPa
Visibilitat: 5000 m
Escasses núvols a una alçada de 400 ft
calitja

METAR: EGJA 061720Z 26006KT 5000 HZ FEW004 11/10 Q1024

Hora: 03:44 (02:44 UTC)

Pronòstic

L'informe es va fer fa 12 hores i 39 minuts, a les 14:05 UTC
Pronòstic vàlid del 06 a les 15 UTC al 07 a les 00 UTC
Vent 7 kt del Oest/Sud-Oest
Visibilitat: 8000 m
Núvols disperses a una alçada de 300 ft
Temporalment
l' 06 a les 15 UTC al 07 a les 00 UTC
Visibilitat: 5000 m
calitja
Probabilitat 30% :
Temporalment
l' 06 a les 22 UTC al 07 a les 00 UTC
Visibilitat: 1500 m
Cel ennuvolat a una alçada de 100 ft
boirina

TAF: EGJA 061405Z 0615/0700 25007KT 8000 SCT003 TEMPO 0615/0700 5000 HZ PROB30 TEMPO 0622/0700 1500 BR BKN001

Observacions i pronòstics meteorològics de més de 4000 aeroports (METAR i TAF).

Les estacions disponibles són els punts grocs i vermells al mapa.

Posi el ratolí al punt desitjat per veure el nom de l'estació.

Feu clic per veure les observacions i els pronòstics meteorològics.

Per canviar el mapa: feu clic els botons verds amb una creu de color negre per apropar; al botó verd amb un guió per allunyar la imatge; o en les fletxes verdes per a mapes adjacents.


METAR-TAF: